createdAt,value
2024-04-30T00:00:03.108Z,0
2024-04-30T00:15:02.447Z,0
2024-04-30T00:30:02.786Z,0
2024-04-30T00:45:03.225Z,0
2024-04-30T01:00:02.606Z,0
2024-04-30T01:15:02.168Z,0
2024-04-30T01:30:02.523Z,0
2024-04-30T01:45:03.127Z,0
2024-04-30T02:00:02.418Z,0
2024-04-30T02:15:02.874Z,0
2024-04-30T02:30:02.298Z,0
2024-04-30T02:45:02.729Z,0
2024-04-30T03:00:03.200Z,0
2024-04-30T03:15:02.660Z,0
2024-04-30T03:30:03.165Z,0
2024-04-30T03:45:02.532Z,0
2024-04-30T04:00:03.159Z,0
2024-04-30T04:15:02.428Z,1
2024-04-30T04:30:02.871Z,8
2024-04-30T04:45:02.299Z,28
2024-04-30T05:00:02.743Z,52
2024-04-30T05:15:03.225Z,75
2024-04-30T05:30:02.670Z,87
2024-04-30T05:45:03.145Z,102
2024-04-30T06:00:02.872Z,180
2024-04-30T06:15:02.177Z,170
2024-04-30T06:30:02.461Z,102
2024-04-30T06:45:02.887Z,278
2024-04-30T07:00:02.364Z,315
2024-04-30T07:15:02.778Z,345
2024-04-30T07:30:02.317Z,388
2024-04-30T07:45:02.662Z,463
2024-04-30T08:00:03.211Z,480
2024-04-30T08:15:02.565Z,505
2024-04-30T08:30:03.178Z,577
2024-04-30T08:45:03.486Z,555
2024-04-30T09:00:02.909Z,205
2024-04-30T09:15:02.318Z,261
2024-04-30T09:30:02.782Z,383
2024-04-30T09:45:03.230Z,301
2024-04-30T10:00:02.779Z,372
2024-04-30T10:15:02.202Z,593
2024-04-30T10:30:02.519Z,640
2024-04-30T10:45:03.234Z,582
2024-04-30T11:00:02.436Z,646
2024-04-30T11:15:02.838Z,626
2024-04-30T11:30:02.303Z,652
2024-04-30T11:45:02.678Z,642
2024-04-30T12:00:03.208Z,633
2024-04-30T12:15:02.594Z,626
2024-04-30T12:30:03.259Z,606
2024-04-30T12:45:02.474Z,594
2024-04-30T13:00:02.926Z,581
2024-04-30T13:15:02.335Z,566
2024-04-30T13:30:02.807Z,553
2024-04-30T13:45:02.264Z,499
2024-04-30T14:00:02.667Z,494
2024-04-30T14:15:03.247Z,202
2024-04-30T14:30:02.574Z,417
2024-04-30T14:45:03.238Z,384
2024-04-30T15:00:02.462Z,364
2024-04-30T15:15:02.910Z,322
2024-04-30T15:30:02.391Z,314
2024-04-30T15:45:02.783Z,296
2024-04-30T16:00:03.317Z,241
2024-04-30T16:15:02.669Z,222
2024-04-30T16:30:03.289Z,156
2024-04-30T16:45:02.517Z,138
2024-04-30T17:00:03.019Z,114
2024-04-30T17:15:02.406Z,72
2024-04-30T17:30:02.829Z,42
2024-04-30T17:45:03.350Z,34
2024-04-30T18:00:02.742Z,23
2024-04-30T18:15:03.279Z,13
2024-04-30T18:30:02.629Z,3
2024-04-30T18:45:03.278Z,0
2024-04-30T19:00:02.507Z,0
2024-04-30T19:15:02.958Z,0
2024-04-30T19:30:02.395Z,0
2024-04-30T19:45:02.841Z,0
2024-04-30T20:00:02.379Z,0
2024-04-30T20:15:02.693Z,0
2024-04-30T20:30:04.132Z,0
2024-04-30T20:45:02.602Z,0
2024-04-30T21:00:03.029Z,0
2024-04-30T21:15:02.447Z,0
2024-04-30T21:30:02.863Z,0
2024-04-30T21:45:02.318Z,0
2024-04-30T22:00:02.734Z,0
2024-04-30T22:15:02.356Z,0
2024-04-30T22:30:12.458Z,0
2024-04-30T22:45:03.069Z,0
2024-04-30T23:00:02.514Z,0
2024-04-30T23:15:02.959Z,0
2024-04-30T23:30:02.440Z,0
2024-04-30T23:45:02.824Z,0
